Round Spring, Missouri
Current Conditions -  °F | °C
As of 9:53 AM on Thursday 29 Jan 2015 (Local Time) from KUNO Reporting Station
Overcast Overcast  
Wind Chill: 38°   Ceiling: 2200
Heat Index: 44°   Visibility: 10mi
Dew Point: 34°   Wind: 13mph
Humidity: 68%   Direction: 320°NW
Pressure: 30.16"   Gusts: NA
Location:  37.1833°N, 91.4819°W
Report Text: KUNO 291553Z AUTO 32011KT 10SM OVC022 07/01 A3016 RMK AO2 SLP216 T00670011
Loading
Personal Weather Stations






























Interactive Weather Map New forecast layout! Learn more

10-Day Weather Forecast

Advertisements
Track Severe Weather on mobile